Datum max min   Außentemperatur Tagesdurchschnitt Außenfeuchte Tagesdurchschnitt Taupunkt Tagesdurchschnitt Windchill Tagesdurchschnitt Windgeschwindigkeit Tagesdurchschnitt   Mindesttemperatur Höchsttemperatur Höchste Windgeschwindigkeit  Tägliche Niederschlagsmenge 
  °C % °C °C km/h   °C °C km/h mm/m²
 
mittelwert
01.01.1978     1018,8 -0,1           -2,0 0,3   0,0
02.01.1978     1015,9 1,2           0,1 1,6   0,2
03.01.1978     1007,9 -0,1           -0,8 1,7   3,2
04.01.1978     1013,3 -2,4           -3,4 -0,2   1,9
05.01.1978     1030,6 -7,8           -9,7 -2,6   0,0
06.01.1978     1028,8 -4,3           -9,3 -3,0   0,6
07.01.1978     1028,4 -1,8           -3,1 1,5   0,0
08.01.1978     1024,5 -3,4           -5,6 -1,9   0,0
09.01.1978     1019,2 -1,0           -3,1 -0,3   0,7
10.01.1978     1014,4 0,3           -1,0 1,0   1,1
11.01.1978     996,9 -1,3           -2,3 1,0   0,0
12.01.1978     1005,8 -2,0           -3,9 0,0   0,0
13.01.1978     1020,8 -1,2           -2,9 0,3   0,0
14.01.1978     1021,9 -1,3           -4,1 -0,4   0,0
15.01.1978     1015,4 -1,2           -3,4 -0,4   0,0
16.01.1978     1006,8 -2,7           -4,7 -0,4   0,0
17.01.1978     1004,8 -1,8           -4,1 -0,9   2,3
18.01.1978     1003,3 -1,9           -2,5 -0,9   1,8
19.01.1978     1002,2 -2,6           -4,4 -2,0   0,0
20.01.1978     1005,6 -1,6           -3,6 -0,3   0,0
21.01.1978     1011,9 -2,6           -2,8 -1,8   0,0
22.01.1978     1007,9 -2,2           -3,2 -1,4   0,0
23.01.1978     1010,2 -1,3           -3,2 -0,5   0,3
24.01.1978     992,2 0,9           -2,5 2,4   10,9
25.01.1978     999,9 -0,2           -0,7 2,0   2,0
26.01.1978     1005,7 -0,7           -1,9 0,3   3,8
27.01.1978     1009,9 -0,8           -1,7 -0,1   1,0
28.01.1978     995,1 -1,0           -3,0 0,8   0,1
29.01.1978     988,5 -0,4           -3,0 0,4   1,8
30.01.1978     996,8 -0,3           -1,2 0,5   0,9
31.01.1978     1009,1 -2,7           -5,0 0,7   0,0
01.02.1978     1004,3 -4,1           -11,9 -2,8   3,1
02.02.1978     996,2 -0,4           -3,9 1,1   6,0
03.02.1978     1012,9 -2,0           -2,2 0,4   2,1
04.02.1978     1021,3 -2,1           -2,5 -0,7   0,0
05.02.1978     1015,6 -3,2           -6,3 -0,8   0,0
06.02.1978     1011,7 -3,0           -6,3 -1,7   0,0
07.02.1978     1014,3 -5,0           -6,0 -2,6   0,3
08.02.1978     1012,5 -6,5           -7,7 -5,3   1,2
09.02.1978     1009,9 -6,8           -7,4 -5,7   0,3
10.02.1978     1001,7 -6,4           -9,6 -4,9   0,0
11.02.1978     991,1 -5,2           -7,3 -4,4   2,5
12.02.1978     999,1 -6,4           -7,4 -3,7   0,2
13.02.1978     1001,5 -5,6           -13,1 -1,9   0,1
14.02.1978     1005,5 -6,2           -7,6 -2,4   0,6
15.02.1978     1008,3 -6,3           -8,1 -3,1   0,5
16.02.1978     1001,3 -5,3           -10,6 -2,3   0,1
17.02.1978     1006,4 -7,5           -9,2 -4,8   0,0
18.02.1978     1014,4 -9,9           -14,9 -2,3   0,0
19.02.1978     1010,0 -10,1           -14,6 -5,2   0,0
20.02.1978     1018,0 -10,9           -15,6 -5,6   0,0
21.02.1978     1015,1 -7,0           -18,4 -1,9   0,4
22.02.1978     1012,2 1,4           -5,0 2,7   0,0
23.02.1978     1007,3 1,4           0,3 3,8   0,0
24.02.1978     1006,4 1,8           -0,1 4,6   0,0
25.02.1978     999,1 2,8           -0,4 8,3   0,0
26.02.1978     995,5 3,0           -1,1 7,6   6,2
27.02.1978     1000,0 2,0           -0,1 6,3   0,0
28.02.1978     1005,0 3,4           -1,0 7,5   0,0
01.03.1978     1007,6 2,1           -0,3 7,4   0,0
02.03.1978     1007,7 2,6           0,0 6,4   0,3
03.03.1978     1007,5 3,5           0,7 9,4   0,0
04.03.1978     1006,6 3,7           -2,6 7,1   0,2
05.03.1978     1011,7 2,1           1,0 5,3   2,5
06.03.1978     1020,2 -0,6           -2,4 1,2   0,0
07.03.1978     1019,1 0,6           -1,6 3,7   0,0
08.03.1978     1013,8 1,7           -1,9 4,2   5,1
09.03.1978     1019,3 2,1           0,5 4,0   0,0
10.03.1978     1025,0 3,3           0,3 6,5   0,3
11.03.1978     1019,7 4,8           2,7 9,2   0,1
12.03.1978     1015,4 2,1           -3,4 9,0   0,0
13.03.1978     1012,2 3,5           1,5 5,9   0,3
14.03.1978     1009,3 4,2           0,3 7,4   0,0
15.03.1978     1003,7 3,8           2,0 5,9   5,9
16.03.1978     995,8 3,3           0,7 8,5   7,1
17.03.1978     999,0 0,9           -1,3 2,7   0,9
18.03.1978     1012,5 -0,9           -4,4 2,2   3,0
19.03.1978     1013,8 -0,2           -2,0 0,7   5,8
20.03.1978     997,8 0,7           -0,9 3,9   2,0
21.03.1978     999,3 0,4           -0,3 2,7   1,8
22.03.1978     1013,0 -0,6           -2,5 3,3   0,8
23.03.1978     1002,3 1,6           -1,0 5,0   3,6
24.03.1978     1007,1 0,4           -0,9 5,0   0,3
25.03.1978     1013,0 2,7           -1,3 5,5   5,3
26.03.1978     1006,9 1,0           -1,1 4,4   2,3
27.03.1978     1012,5 2,6           -0,4 3,5   3,7
28.03.1978     1015,0 8,1           3,4 11,0   3,2
29.03.1978     1011,8 10,0           3,5 16,8   0,0
30.03.1978     1006,2 10,9           4,0 17,9   0,0
31.03.1978     1007,1 9,8           5,6 15,1   0,0
01.04.1978     1005,1 8,6           7,8 11,4   1,4
02.04.1978     1004,6 7,6           6,7 9,8   0,0
03.04.1978     1008,8 6,4           4,5 8,0   0,3
04.04.1978     1011,6 6,2           5,5 8,1   1,0
05.04.1978     1015,7 1,4           0,8 6,1   0,3
06.04.1978     1021,0 -1,3           -3,6 2,7   0,0
07.04.1978     1015,3 1,6           -6,0 8,2   0,0
08.04.1978     1010,2 4,2           -2,5 10,4   0,0
09.04.1978     1009,2 4,6           -2,0 11,5   0,0
10.04.1978     1005,0 6,6           -2,1 13,6   1,1
11.04.1978     1006,0 2,2           0,4 6,5   5,0
12.04.1978     1011,1 0,3           -1,5 4,9   0,1
13.04.1978     1004,4 2,4           -3,6 8,0   0,0
14.04.1978     999,5 2,3           -2,6 7,3   0,0
15.04.1978     1009,4 1,4           -1,6 5,5   0,3
16.04.1978     1014,0 0,1           -2,0 4,8   0,1
17.04.1978     1018,0 1,4           -3,2 7,0   0,0
18.04.1978     1016,2 2,9           -4,1 9,6   0,0
19.04.1978     1014,6 5,0           -2,6 11,5   0,0
20.04.1978     1010,7 7,2           -1,6 14,4   0,0
21.04.1978     1014,0 5,3           1,8 10,6   0,1
22.04.1978     1020,1 6,6           3,5 10,9   0,0
23.04.1978     1018,5 7,2           3,4 11,9   0,0
24.04.1978     1008,7 9,4           -0,6 16,7   0,0
25.04.1978     1005,4 5,7           3,4 10,0   0,0
26.04.1978     1002,8 8,2           -0,8 14,5   0,0
27.04.1978     1002,4 6,8           3,4 12,0   0,0
28.04.1978     1009,3 8,2           4,9 11,4   1,9
29.04.1978     1007,6 10,1           1,4 17,1   0,0
30.04.1978     1003,8 10,8           7,6 15,7   0,0
01.05.1978     997,9 9,6           5,1 12,5   9,7
02.05.1978     1000,9 6,2           5,2 9,3   10,2
03.05.1978     1012,7 8,2           4,9 11,6   0,0
04.05.1978     1016,1 8,3           1,3 16,5   0,0
05.05.1978     1011,9 11,0           5,0 19,7   0,0
06.05.1978     1005,9 14,8           9,6 19,1   0,0
07.05.1978     1005,0 13,4           8,5 11,7   63,3
08.05.1978     1006,5 9,4           6,7 8,6   11,4
09.05.1978     1014,0 7,2           4,6 11,4   0,8
10.05.1978     1021,0 6,8           1,6 7,5   0,9
11.05.1978     1024,3 3,6           -3,4 3,3   0,0
12.05.1978     1009,4 -0,2           -1,0 6,9   5,7
13.05.1978     1006,8 2,6           1,9 7,8   3,3
14.05.1978     1010,9 4,2           2,5 10,5   0,1
15.05.1978     1011,3 5,4           3,2 11,1   1,0
16.05.1978     1015,0 7,4           5,4 11,2   6,4
17.05.1978     1016,8 7,5           1,5 13,5   0,1
18.05.1978     1016,0 8,4           2,6 16,2   0,0
19.05.1978     1013,0 9,6           5,0 14,9   7,7
20.05.1978     1013,6 11,6           8,9 14,6   13,3
21.05.1978     1010,5 10,8           7,2 19,0   0,0
22.05.1978     998,0 13,4           9,9 18,7   25,8
23.05.1978     999,6 12,9           9,1 13,0   0,0
24.05.1978     1010,3 10,0           8,9 13,5   0,0
25.05.1978     1018,4 11,1           9,4 12,6   0,0
26.05.1978     1021,9 11,0           10,1 17,3   0,0
27.05.1978     1023,2 12,6           5,8 17,6   0,0
28.05.1978     1024,3 13,4           6,8 19,5   0,0
29.05.1978     1023,9 14,0           7,2 19,7   0,0
30.05.1978     1021,9 15,7           9,4 20,6   10,1
31.05.1978     1021,8 14,4           8,0 22,6   0,0
01.06.1978     1023,0 16,8           10,1 24,4   0,0
02.06.1978     1021,6 19,1           10,2 26,1   0,0
03.06.1978     1018,9 19,1           12,0 24,5   0,4
04.06.1978     1018,2 17,4           12,8 25,2   4,8
05.06.1978     1018,6 15,8           12,7 24,0   0,9
06.06.1978     1016,7 17,5           13,3 24,0   0,0
07.06.1978     1014,8 18,1           13,6 23,5   3,0
08.06.1978     1015,9 18,9           13,2 18,2   0,4
09.06.1978     1015,1 14,9           11,2 17,7   0,0
10.06.1978     1014,9 14,2           10,4 14,2   0,0
11.06.1978     1021,2 11,4           4,4 12,9   0,0
12.06.1978     1013,4 9,0           6,0 10,7   3,7
13.06.1978     1014,4 7,1           3,1 10,1   6,1
14.06.1978     1013,1 7,4           4,7 13,6   3,6
15.06.1978     1009,2 8,8           4,0 18,0   0,0
16.06.1978     1005,3 11,4           7,2 17,0   16,8
17.06.1978     1005,8 12,3           9,7 16,7   9,4
18.06.1978     1016,6 10,9           5,9 15,7   0,0
19.06.1978     1018,2 13,6           4,9 19,4   0,0
20.06.1978     1015,0 12,4           7,9 18,8   16,3
21.06.1978     1011,2 13,2           5,4 18,5   0,0
22.06.1978     1009,2 14,6           9,9 19,6   1,1
23.06.1978     1003,5 12,2           9,7 18,0   3,8
24.06.1978     1004,2 9,5           8,5 14,3   2,3
25.06.1978     1009,9 8,5           5,4 12,5   3,5
26.06.1978     1011,5 8,7           5,0 11,8   2,1
27.06.1978     1011,5 8,8           7,8 12,0   4,4
28.06.1978     1015,9 9,1           6,4 11,5   0,0
29.06.1978     1017,8 11,6           5,1 14,9   0,1
30.06.1978     1017,3 16,5           8,2 22,6   0,6
01.07.1978     1018,9 13,6           11,2 17,9   0,0
02.07.1978     1016,7 15,8           6,9 20,2   2,0
03.07.1978     1008,8 14,4           12,6 17,6   1,7
04.07.1978     1006,7 12,0           10,9 14,0   1,6
05.07.1978     1007,8 10,9           8,7 14,6   7,4
06.07.1978     1011,0 10,2           9,0 15,4   4,6
07.07.1978     1014,5 9,5           6,9 12,4   1,0
08.07.1978     1014,8 10,9           7,9 14,6   8,7
09.07.1978     1008,3 9,2           8,0 11,7   4,4
10.07.1978     1012,2 9,8           6,9 14,1   0,2
11.07.1978     1013,9 13,4           3,3 20,1   0,0
12.07.1978     1016,3 14,7           9,0 21,7   1,0
13.07.1978     1021,8 14,1           8,6 19,5   0,1
14.07.1978     1020,6 14,7           9,2 21,0   0,0
15.07.1978     1020,3 10,0           8,3 13,4   0,0
16.07.1978     1017,8 11,2           4,2 15,0   0,2
17.07.1978     1016,9 12,6           9,2 18,2   0,0
18.07.1978     1010,2 14,3           6,1 19,4   1,2
19.07.1978     1010,5 12,2           10,4 16,0   2,9
20.07.1978     1009,6 11,2           9,4 15,3   4,5
21.07.1978     1013,4 10,5           8,6 14,3   0,9
22.07.1978     1021,2 10,9           7,4 15,4   0,0
23.07.1978     1021,4 13,9           4,3 20,2   0,0
24.07.1978     1019,7 15,2           7,0 21,3   0,0
25.07.1978     1018,2 17,6           8,6 24,6   0,0
26.07.1978     1015,3 20,2           10,5 25,7   0,7
27.07.1978     1020,2 18,0           15,0 22,4   0,0
28.07.1978     1022,2 20,1           11,6 27,3   0,0
29.07.1978     1022,5 20,4           14,8 28,0   0,0
30.07.1978     1018,2 20,3           13,7 26,6   0,0
31.07.1978     1013,9 20,1           11,8 25,4   0,0
01.08.1978     1014,1 20,4           13,6 27,0   6,3
02.08.1978     1017,1 16,4           13,6 21,7   0,8
03.08.1978     1015,5 15,9           11,0 23,2   0,0
04.08.1978     1016,9 15,2           11,6 20,7   0,0
05.08.1978     1017,6 15,6           10,5 20,6   0,0
06.08.1978     1012,7 17,2           11,4 21,5   0,0
07.08.1978     1005,2 15,2           12,5 21,6   57,2
08.08.1978     1003,0 10,4           9,7 12,7   16,4
09.08.1978     1012,6 11,8           9,0 16,7   1,0
10.08.1978     1017,0 12,0           10,3 15,0   1,9
11.08.1978     1019,8 11,7           9,5 14,6   0,4
12.08.1978     1020,0 10,0           8,5 13,6   0,1
13.08.1978     1018,2 11,6           7,0 16,6   0,0
14.08.1978     1018,0 14,0           9,8 19,2   0,0
15.08.1978     1014,8 17,1           7,4 24,1   0,0
16.08.1978     1017,6 15,7           13,4 20,2   0,4
17.08.1978     1020,4 13,8           9,8 19,1   1,3
18.08.1978     1023,7 10,0           7,5 15,3   0,0
19.08.1978     1023,5 11,8           4,0 18,5   0,0
20.08.1978     1021,2 14,4           5,6 22,8   0,0
21.08.1978     1021,3 16,8           7,7 24,5   0,0
22.08.1978     1020,6 18,8           9,5 25,5   0,0
23.08.1978     1020,8 15,2           11,8 18,7   0,2
24.08.1978     1024,2 12,6           9,0 18,0   0,0
25.08.1978     1021,1 12,0           5,7 18,3   0,0
26.08.1978     1019,2 9,9           7,0 13,8   1,1
27.08.1978     1015,4 7,9           4,4 12,1   1,8
28.08.1978     1020,0 7,0           3,4 12,5   0,0
29.08.1978     1018,1 11,2           4,3 16,6   1,7
30.08.1978     1010,4 7,8           7,0 11,5   9,3
31.08.1978     1010,3 7,6           6,2 12,0   12,6
01.09.1978     1008,3 8,3           6,8 11,0   3,6
02.09.1978     1009,5 8,3           7,0 12,1   6,9
03.09.1978     1011,8 8,1           6,6 12,0   0,0
04.09.1978     1010,5 9,1           6,4 13,4   0,0
05.09.1978     1008,6 10,9           7,9 15,9   0,0
06.09.1978     1007,0 12,1           3,6 18,6   2,5
07.09.1978     1008,9 11,5           10,0 14,4   0,0
08.09.1978     1015,9 11,3           9,2 15,6   1,7
09.09.1978     1017,6 13,3           7,9 15,9   0,6
10.09.1978     1015,5 15,6           11,5 18,8   0,1
11.09.1978     1009,0 14,4           12,0 18,3   23,9
12.09.1978     1015,5 9,6           8,4 12,3   0,3
13.09.1978     1023,6 9,9           6,3 12,1   0,0
14.09.1978     1016,8 13,0           7,5 17,2   0,4
15.09.1978     1018,2 12,1           6,5 15,1   0,0
16.09.1978     1022,7 12,1           8,0 16,6   0,0
17.09.1978     1019,9 13,6           8,6 19,7   0,0
18.09.1978     1021,4 8,9           5,2 14,5   0,0
19.09.1978     1017,2 6,5           5,0 9,4   5,4
20.09.1978     1024,2 6,0           3,2 8,2   2,8
21.09.1978     1023,4 8,4           5,1 10,2   0,0
22.09.1978     1020,6 10,6           7,5 11,5   13,6
23.09.1978     1017,7 11,2           10,8 12,8   1,9
24.09.1978     1019,0 12,5           10,4 16,5   0,0
25.09.1978     1019,7 14,2           7,5 19,7   0,1
26.09.1978     1020,2 9,0           8,0 13,7   3,5
27.09.1978     1015,0 8,5           5,9 10,9   9,2
28.09.1978     1012,3 6,7           5,4 9,5   6,1
29.09.1978     1006,1 8,4           5,1 9,7   7,9
30.09.1978     1007,1 6,0           4,6 9,4   6,8
01.10.1978     1011,8 6,4           4,0 10,8   0,7
02.10.1978     1018,7 6,4           4,6 8,7   1,0
03.10.1978     1014,8 6,1           5,7 6,7   6,5
04.10.1978     1013,2 5,5           4,5 6,1   19,1
05.10.1978     1020,7 6,6           3,6 8,7   2,4
06.10.1978     1022,2 9,2           7,0 12,0   0,0
07.10.1978     1024,0 10,4           7,1 16,0   0,1
08.10.1978     1021,8 10,9           6,0 20,2   0,0
09.10.1978     1020,9 11,4           4,4 21,2   0,0
10.10.1978     1022,9 11,6           4,3 20,4   0,0
11.10.1978     1027,1 11,8           5,2 20,6   0,0
12.10.1978     1028,0 11,6           6,7 20,4   0,0
13.10.1978     1023,5 11,8           7,4 18,4   0,0
14.10.1978     1021,3 6,9           3,0 12,5   0,0
15.10.1978     1020,2 8,6           0,8 19,1   0,0
16.10.1978     1015,7 8,3           2,4 11,4   2,9
17.10.1978     1007,1 4,8           3,6 10,1   5,7
18.10.1978     1017,5 3,8           2,0 4,7   0,0
19.10.1978     1023,4 2,6           1,1 7,7   0,0
20.10.1978     1017,8 3,6           -3,6 10,3   2,7
21.10.1978     1017,6 3,9           1,8 6,3   0,0
22.10.1978     1014,0 5,4           2,7 6,6   6,0
23.10.1978     1021,5 5,1           4,0 7,0   0,0
24.10.1978     1023,3 7,0           2,6 10,6   0,0
25.10.1978     1019,5 7,2           6,0 8,9   3,0
26.10.1978     1022,2 4,2           3,0 7,4   0,7
27.10.1978     1028,1 4,1           0,9 7,1   0,4
28.10.1978     1025,4 5,2           3,5 6,0   0,7
29.10.1978     1025,6 6,4           5,6 7,5   0,2
30.10.1978     1024,7 6,3           5,4 8,0   0,1
31.10.1978     1025,0 3,0           -0,7 9,9   0,0
01.11.1978     1030,3 4,2           0,0 5,5   0,0
02.11.1978     1029,0 3,8           2,9 5,6   0,0
03.11.1978     1028,2 2,0           1,1 4,2   0,0
04.11.1978     1027,8 4,0           1,2 5,1   1,6
05.11.1978     1029,6 5,6           4,6 7,5   0,0
06.11.1978     1030,2 4,2           3,6 6,3   0,0
07.11.1978     1029,8 0,9           -1,0 4,4   0,0
08.11.1978     1029,3 -1,3           -2,0 -0,1   0,0
09.11.1978     1028,8 -1,5           -3,3 2,8   0,0
10.11.1978     1025,0 -2,1           -3,2 -1,3   0,0
11.11.1978     1025,5 -1,3           -2,2 0,1   0,0
12.11.1978     1023,0 -2,0           -4,0 1,8   0,0
13.11.1978     1026,2 -0,3           -3,7 5,0   0,0
14.11.1978     1031,2 4,9           -0,6 6,6   0,0
15.11.1978     1025,7 5,5           1,0 6,2   0,0
16.11.1978     1023,9 4,0           1,7 6,6   0,0
17.11.1978     1029,3 4,1           0,1 6,2   0,0
18.11.1978     1025,8 4,2           1,3 8,2   0,0
19.11.1978     1021,3 3,5           0,2 7,7   0,0
20.11.1978     1021,5 3,1           1,7 4,3   0,0
21.11.1978     1027,9 2,3           1,3 4,7   0,0
22.11.1978     1031,9 4,2           1,3 5,1   0,0
23.11.1978     1031,5 5,7           5,0 6,0   0,0
24.11.1978     1014,5 4,5           0,4 2,8   0,0
25.11.1978     1013,2 1,7           -1,6 2,0   5,8
26.11.1978     1007,4 -0,9           -3,3 -0,8   1,0
27.11.1978     1005,6 -1,9           -4,6 -2,2   0,2
28.11.1978     1010,4 -4,0           -5,7 -1,5   0,3
29.11.1978     1011,9 -2,6           -2,9 -2,2   4,1
30.11.1978     1015,3 -2,6           -3,4 -0,6   2,1
01.12.1978     1018,3 -1,4           -0,7 0,2   3,3
02.12.1978     1014,2 -0,2           -2,1 0,0   0,0
03.12.1978     1012,6 -1,6           -8,6 -2,1   0,0
04.12.1978     1023,0 -5,9           -13,0 -5,1   0,0
05.12.1978     1022,8 -10,6           -15,0 -5,5   0,0
06.12.1978     1015,1 -9,1           -14,5 -8,5   0,0
07.12.1978     1014,9 -12,4           -14,0 -8,0   0,0
08.12.1978     1007,4 -7,8           -15,3 -5,9   7,8
09.12.1978     1009,9 2,8           -6,1 4,0   4,5
10.12.1978     1015,5 4,5           3,6 5,3   0,3
11.12.1978     1007,3 3,5           2,9 5,1   0,0
12.12.1978     996,6 3,0           0,8 4,5   3,8
13.12.1978     990,5 3,8           2,6 6,1   9,0
14.12.1978     987,4 3,1           1,4 4,0   3,9
15.12.1978     993,6 3,0           1,0 4,0   5,7
16.12.1978     997,0 1,0           -1,4 4,0   1,9
17.12.1978     1011,2 -5,1           -6,0 -1,4   0,1
18.12.1978     1023,0 -8,8           -11,0 -5,0   0,0
19.12.1978     1013,1 -6,0           -12,1 -4,5   0,0
20.12.1978     1009,0 -4,2           -5,9 -2,0   5,5
21.12.1978     1014,2 -3,2           -9,6 -1,9   0,0
22.12.1978     1008,6 -1,0           -2,1 -0,6   0,0
23.12.1978     1007,7 -2,6           -3,3 -0,6   0,0
24.12.1978     1003,0 -1,7           -3,6 -0,5   1,7
25.12.1978     1003,5 3,5           -1,4 4,6   6,6
26.12.1978     1009,8 4,4           3,1 5,1   2,9
27.12.1978     1005,0 3,4           1,7 6,4   0,5
28.12.1978     996,5 5,7           2,1 7,5   12,0
29.12.1978     991,9 6,8           5,2 8,6   21,8
30.12.1978     992,9 4,7           4,2 5,5   23,0
31.12.1978     985,0 -13,4           -18,1 5,9   17,8